createdAt,value
2023-02-03T00:00:33.747Z,6.17
2023-02-03T00:15:23.581Z,6.00
2023-02-03T00:30:24.012Z,6.33
2023-02-03T00:45:23.832Z,6.05
2023-02-03T01:00:24.656Z,6.03
2023-02-03T01:15:23.954Z,6.20
2023-02-03T01:30:23.545Z,5.98
2023-02-03T01:45:23.435Z,6.03
2023-02-03T02:00:23.388Z,5.82
2023-02-03T02:15:23.476Z,6.03
2023-02-03T02:30:45.577Z,5.78
2023-02-03T02:45:23.317Z,5.80
2023-02-03T03:00:24.164Z,6.20
2023-02-03T03:15:24.143Z,5.80
2023-02-03T03:30:24.245Z,5.93
2023-02-03T03:45:24.240Z,5.80
2023-02-03T04:00:24.272Z,5.80
2023-02-03T04:15:33.312Z,6.00
2023-02-03T04:30:33.466Z,5.95
2023-02-03T04:45:33.639Z,6.20
2023-02-03T05:01:08.543Z,6.17
2023-02-03T05:15:23.480Z,6.23
2023-02-03T05:30:23.437Z,6.03
2023-02-03T05:45:23.284Z,5.97
2023-02-03T06:00:23.283Z,6.27
2023-02-03T06:04:54.799Z,8.00
2023-02-03T06:15:23.747Z,6.03
2023-02-03T06:30:23.641Z,5.88
2023-02-03T06:45:23.552Z,5.73
2023-02-03T07:00:23.853Z,5.73
2023-02-03T07:15:24.034Z,5.70
2023-02-03T07:30:23.968Z,5.73
2023-02-03T07:45:24.002Z,5.93
2023-02-03T08:00:24.021Z,5.85
2023-02-03T08:15:23.999Z,5.93
2023-02-03T08:30:25.146Z,5.90
2023-02-03T08:45:24.254Z,6.10
2023-02-03T09:00:24.284Z,6.05
2023-02-03T09:15:24.515Z,6.10
2023-02-03T09:30:33.612Z,6.40
2023-02-03T09:45:41.213Z,6.45
2023-02-03T10:00:33.572Z,6.72
2023-02-03T10:15:23.407Z,6.87
2023-02-03T10:30:23.776Z,7.20
2023-02-03T10:45:23.624Z,7.25
2023-02-03T11:00:24.233Z,7.15
2023-02-03T11:15:25.289Z,7.20
2023-02-03T11:30:27.548Z,7.20
2023-02-03T11:45:33.397Z,7.28
2023-02-03T12:00:34.696Z,7.50
2023-02-03T12:15:23.560Z,7.25
2023-02-03T12:30:23.337Z,7.37
2023-02-03T12:45:23.636Z,7.28
2023-02-03T13:00:23.334Z,7.50
2023-02-03T13:15:23.925Z,7.53
2023-02-03T13:30:23.684Z,7.25
2023-02-03T13:45:23.725Z,7.50
2023-02-03T14:00:23.683Z,7.30
2023-02-03T14:15:23.636Z,7.45
2023-02-03T14:30:23.849Z,7.53
2023-02-03T14:45:23.906Z,7.43
2023-02-03T15:00:24.158Z,7.53
2023-02-03T15:15:24.029Z,8.50
2023-02-03T15:30:24.094Z,8.50
2023-02-03T15:45:24.385Z,8.50
2023-02-03T16:00:23.991Z,7.38
2023-02-03T16:15:24.261Z,7.25
2023-02-03T16:30:24.229Z,7.27
2023-02-03T16:45:24.358Z,7.15
2023-02-03T17:00:33.450Z,7.07
2023-02-03T17:15:23.673Z,7.02
2023-02-03T17:30:23.655Z,7.07
2023-02-03T17:54:07.085Z,7.10
2023-02-03T18:00:26.982Z,7.02
2023-02-03T18:15:23.788Z,7.15
2023-02-03T18:30:23.606Z,7.05
2023-02-03T18:45:23.972Z,6.90
2023-02-03T19:00:24.059Z,7.00
2023-02-03T19:15:23.711Z,6.85
2023-02-03T19:30:23.973Z,6.97
2023-02-03T19:45:24.181Z,6.80
2023-02-03T20:00:23.963Z,6.93
2023-02-03T20:15:24.018Z,6.78
2023-02-03T20:30:23.995Z,6.75
2023-02-03T20:45:24.506Z,6.70
2023-02-03T21:00:24.277Z,6.65
2023-02-03T21:15:24.081Z,6.67
2023-02-03T21:30:24.420Z,6.73
2023-02-03T21:45:24.234Z,6.60
2023-02-03T22:00:33.168Z,6.60
2023-02-03T22:15:23.659Z,6.65
2023-02-03T22:30:23.592Z,6.70
2023-02-03T22:45:23.947Z,6.62
2023-02-03T23:00:37.362Z,7.50
2023-02-03T23:15:24.212Z,6.45
2023-02-03T23:30:24.282Z,6.43
2023-02-03T23:45:24.275Z,6.45
